Diksmuide Heliport

EBDI · West-Vlaanderen, Flanders, 比利时

METAR的历史 EBDI · Diksmuide Heliport

下面你可以看到过去几天的METARs。 选择年份以浏览从2007年开始的旧METAR。

2024年7月14日

时间 代码 天气 温度 能见度 天花板 METAR/SPECI
08:52
V
16 °C 10 km+ - 220° 220° 7 kt SPECI EBFN 140652Z AUTO 22007KT 9999 NCD 16/13 Q1012 BLU
08:25
V
15 °C 9 km - 230° 230° 6 kt METAR EBFN 140625Z AUTO 23006KT 9000 NCD 15/13 Q1012 BLU
07:55
M
14 °C 7 km - 220° 220° 5 kt METAR EBFN 140555Z AUTO 22005KT 7000 NCD 14/13 Q1012 WHT
07:25
M
12 °C 7 km - 210° 210° 5 kt METAR EBFN 140525Z AUTO 21005KT 7000 NCD 12/12 Q1012 WHT
06:55
M
11 °C 5 km - 210° 210° 5 kt METAR EBFN 140455Z AUTO 21005KT 5000 NCD 11/11 Q1012 WHT
06:25
I
11 °C 4,7 km - 220° 220° 3 kt METAR EBFN 140425Z AUTO 22003KT 4700 NCD 11/10 Q1012 GRN
05:55
I
10 °C 4,7 km - 200° 200° 5 kt METAR EBFN 140355Z AUTO 20005KT 4700 BR NCD 10/10 Q1012 GRN
05:33
I
10 °C 4,5 km - 220° 220° 4 kt SPECI EBFN 140333Z AUTO 22004KT 4500 NCD 10/10 Q1012 GRN
05:25
M
11 °C 6 km - 220° 220° 4 kt METAR EBFN 140325Z AUTO 22004KT 6000 NCD 11/10 Q1012 WHT
04:55
M
11 °C 5 km - 210° 210° 5 kt METAR EBFN 140255Z AUTO 21005KT 5000 NCD 11/10 Q1012 WHT
04:25
M
11 °C 6 km - 220° 220° 4 kt METAR EBFN 140225Z AUTO 22004KT 6000 NCD 11/10 Q1012 WHT
03:55
M
11 °C 6 km - 210° 210° 5 kt METAR EBFN 140155Z AUTO 21005KT 6000 NCD 11/11 Q1012 WHT
03:25
M
11 °C 7 km - 200° 200° 5 kt METAR EBFN 140125Z AUTO 20005KT 7000 NCD 11/10 Q1012 WHT
02:55
M
11 °C 7 km - 210° 210° 4 kt METAR EBFN 140055Z AUTO 21004KT 7000 NCD 11/10 Q1012 WHT
02:51
M
11 °C 7 km - 220° 220° 3 kt SPECI EBFN 140051Z AUTO 22003KT 7000 FEW130/// 11/10 Q1012 WHT
02:25
V
11 °C 9 km 13.000 ft 220° 220° 3 kt METAR EBFN 140025Z AUTO 22003KT 9000 BKN130/// 11/10 Q1013 BLU
01:55
V
12 °C 10 km+ 13.000 ft 220° 220° 4 kt METAR EBFN 132355Z AUTO 22004KT 9999 BKN130/// 12/10 Q1013 BLU
01:25
V
12 °C 10 km+ 13.000 ft 210° 210° 4 kt METAR EBFN 132325Z AUTO 21004KT 9999 FEW100/// BKN130/// 12/10 Q1013 BLU
00:55
V
12 °C 10 km+ - 220° 220° 3 kt METAR EBFN 132255Z AUTO 22003KT 9999 NCD 12/10 Q1013 BLU
00:25
V
12 °C 10 km+ - 230° 230° 4 kt METAR EBFN 132225Z AUTO 23004KT 9999 NCD 12/10 Q1013 BLU

2024年7月13日

时间 代码 天气 温度 能见度 天花板 METAR/SPECI
23:55
V
12 °C 10 km+ - 240° 240° 4 kt METAR EBFN 132155Z AUTO 24004KT 9999 NCD 12/10 Q1013 BLU
23:25
V
13 °C 10 km+ - 230° 230° 6 kt METAR EBFN 132125Z AUTO 23006KT 9999 NCD 13/11 Q1013 BLU
22:55
V
14 °C 10 km+ - 230° 230° 6 kt METAR EBFN 132055Z AUTO 23006KT 9999 NCD 14/11 Q1013 BLU
22:25
V
15 °C 10 km+ - 220° 220° 4 kt METAR EBFN 132025Z AUTO 22004KT 9999 NCD 15/12 Q1013 BLU
22:22
I
15 °C 3,8 km - 230° 230° 3 kt SPECI EBFN 132022Z AUTO 23003KT 3800 NCD 15/12 Q1013 GRN
21:55
V
16 °C 10 km+ - 260° 260° 5 kt METAR EBFN 131955Z AUTO 26005KT 9999 SCT073/// 16/12 Q1013 BLU
21:25
V
16 °C 10 km+ 5.300 ft 250° 250° 5 kt METAR EBFN 131925Z AUTO 25005KT 9999 BKN053/// 16/12 Q1013 BLU
20:55
V
17 °C 10 km+ 5.200 ft 260° 260° 4 kt METAR EBFN 131855Z AUTO 26004KT 9999 BKN052/// 17/11 Q1013 BLU
20:25
V
16 °C 10 km+ - 280° 280° 6 kt METAR EBFN 131825Z AUTO 28006KT 9999 FEW057/// 16/12 Q1013 BLU
19:55
V
17 °C 10 km+ - 290° 290° 5 kt METAR EBFN 131755Z AUTO 29005KT 9999 FEW064/// 17/12 Q1013 BLU
19:25
V
17 °C 10 km+ 5.400 ft 310° 310° 6 kt METAR EBFN 131725Z AUTO 31006KT 9999 BKN054/// 17/12 Q1013 BLU
18:55
V
18 °C 10 km+ 9.800 ft 300° 300° 7 kt METAR EBFN 131655Z AUTO 30007KT 9999 FEW057/// BKN098/// 18/12 Q1013 BLU
18:25
V
17 °C 10 km+ 9.600 ft 290° 290° 6 kt METAR EBFN 131625Z AUTO 29006KT 9999 BKN096/// 17/11 Q1013 BLU
17:55
V
18 °C 10 km+ 9.500 ft 290° 290° 7 kt METAR EBFN 131555Z AUTO 29007KT 9999 FEW044/// BKN095/// 18/11 Q1013 BLU
17:25
V
17 °C 10 km+ 9.000 ft 290° 290° 9 kt METAR EBFN 131525Z AUTO 29009KT 9999 FEW045/// OVC090/// 17/11 Q1013 BLU
16:55
V
17 °C 10 km+ 8.600 ft 280° 280° 10 kt METAR EBFN 131455Z AUTO 28010KT 9999 FEW071/// BKN086/// 17/12 Q1013 BLU
16:25
V
17 °C 10 km+ - 290° 290° 10 kt METAR EBFN 131425Z AUTO 29010KT 9999 FEW085/// 17/11 Q1013 BLU
15:55
V
17 °C 10 km+ - 290° 290° 9 kt METAR EBFN 131355Z AUTO 29009KT 9999 FEW027/// 17/12 Q1013 BLU
15:49
V
17 °C 10 km+ - 290° 290° 10 kt SPECI EBFN 131349Z AUTO 29010KT 9999 FEW023/// SCT073/// 17/11 Q1013 BLU
15:25
M
16 °C 10 km+ 2.300 ft 300° 300° 10 kt METAR EBFN 131325Z AUTO 30010KT 9999 BKN023/// 16/11 Q1014 WHT
14:55
M
16 °C 10 km+ 2.200 ft 280° 280° 9 kt METAR EBFN 131255Z AUTO 28009KT 9999 BKN022/// BKN110/// 16/11 Q1014 WHT
14:33
M
16 °C 10 km+ 2.900 ft 280° 280° 10 kt SPECI EBFN 131233Z AUTO 28010KT 9999 SCT022/// BKN029/// BKN071/// 16/11 Q1014 WHT
14:14
M
15 °C 10 km+ 2.900 ft 290° 290° 11 kt SPECI EBFN 131214Z AUTO 29011KT 9999 FEW023/// BKN029/// BKN047/// 15/10 Q1014 BLU
13:55
M
15 °C 10 km+ 2.400 ft 270° 270° 12 kt METAR EBFN 131155Z AUTO 27012KT 9999 BKN024/// BKN033/// 15/11 Q1014 WHT
13:44
V
15 °C 10 km+ 3.100 ft 270° 270° 10 kt SPECI EBFN 131144Z AUTO 27010KT 9999 SCT023/// BKN031/// 15/11 Q1014 WHT
13:25
M
15 °C 10 km+ 3.000 ft 270° 270° 8 kt METAR EBFN 131125Z AUTO 27008KT 9999 OVC030/// 15/09 Q1014 BLU
13:13
M
14 °C 10 km+ 2.800 ft 270° 270° 8 kt SPECI EBFN 131113Z AUTO 27008KT 9999 OVC028/// 14/09 Q1014 BLU
12:55
M
14 °C 10 km+ 2.200 ft 260° 260° 9 kt METAR EBFN 131055Z AUTO 26009KT 9999 OVC022/// 14/09 Q1014 WHT
12:25
M
14 °C 10 km+ 2.200 ft 270° 270° 8 kt METAR EBFN 131025Z AUTO 27008KT 9999 OVC022/// 14/10 Q1014 WHT
11:55
M
14 °C 10 km+ 1.900 ft 280° 280° 9 kt METAR EBFN 130955Z AUTO 28009KT 9999 OVC019/// 14/10 Q1014 WHT
11:25
M
14 °C 10 km+ 1.700 ft 260° 260° 6 kt METAR EBFN 130925Z AUTO 26006KT 9999 OVC017/// 14/11 Q1014 WHT
10:55
M
14 °C 10 km+ 1.800 ft 280° 280° 10 kt METAR EBFN 130855Z AUTO 28010KT 9999 OVC018/// 14/11 Q1014 WHT
10:25
M
13 °C 10 km+ 1.500 ft 270° 270° 9 kt METAR EBFN 130825Z AUTO 27009KT 9999 OVC015/// 13/11 Q1013 WHT
10:18
M
13 °C 10 km+ 1.500 ft 270° 270° 9 kt SPECI EBFN 130818Z AUTO 27009KT 9999 -DZ OVC015/// 13/11 Q1013 WHT
09:55
M
13 °C 10 km+ 1.200 ft 280° 280° 10 kt METAR EBFN 130755Z AUTO 28010KT 9999 -DZ OVC012/// 13/11 Q1013 GRN
09:33
M
13 °C 10 km+ 1.400 ft 280° 280° 9 kt SPECI EBFN 130733Z AUTO 28009KT 9999 -RA OVC014/// 13/12 Q1013 GRN
08:55
M
14 °C 10 km+ 1.500 ft 260° 260° 9 kt METAR EBFN 130655Z AUTO 26009KT 9999 OVC015/// 14/11 Q1013 WHT
08:25
M
13 °C 10 km+ 1.600 ft 270° 270° 10 kt METAR EBFN 130625Z AUTO 27010KT 9999 -DZ BKN016/// OVC083/// 13/11 Q1013 WHT
07:55
V
13 °C 10 km+ 7.300 ft 270° 270° 9 kt METAR EBFN 130555Z AUTO 27009KT 9999 -RA FEW014/// SCT018/// OVC073/// 13/12 Q1013 WHT
07:34
M
13 °C 10 km+ 1.400 ft 280° 280° 9 kt SPECI EBFN 130534Z AUTO 28009KT 9999 -RA BKN014/// BKN050/// OVC075/// 13/12 Q1013 GRN
06:55
M
13 °C 10 km+ 1.800 ft 280° 280° 10 kt METAR EBFN 130455Z AUTO 28010KT 9999 -RA BKN018/// OVC047/// 13/12 Q1013 WHT
06:25
M
13 °C 10 km+ 1.300 ft 280° 280° 10 kt METAR EBFN 130425Z AUTO 28010KT 9999 -RA OVC013/// 13/11 Q1013 GRN
06:09
M
13 °C 10 km+ 1.400 ft 290° 290° 10 kt SPECI EBFN 130409Z AUTO 29010KT 9999 -RA OVC014/// 13/12 Q1013 GRN
05:55
M
14 °C 10 km+ 1.500 ft 290° 290° 9 kt METAR EBFN 130355Z AUTO 29009KT 9999 -DZ BKN015/// 14/11 Q1013 WHT
05:25
M
14 °C 10 km+ 1.600 ft 290° 290° 11 kt METAR EBFN 130325Z AUTO 29011KT 9999 BKN016/// 14/11 Q1013 WHT
04:55
M
14 °C 10 km+ 1.700 ft 290° 290° 11 kt METAR EBFN 130255Z AUTO 29011KT 9999 BKN017/// 14/11 Q1013 WHT
04:25
M
14 °C 10 km+ 1.700 ft 290° 290° 10 kt METAR EBFN 130225Z AUTO 29010KT 9999 BKN017/// 14/11 Q1013 WHT
03:55
M
14 °C 10 km+ 1.800 ft 290° 290° 9 kt METAR EBFN 130155Z AUTO 29009KT 9999 BKN018/// 14/11 Q1013 WHT
03:25
M
14 °C 10 km+ 1.800 ft 290° 290° 9 kt METAR EBFN 130125Z AUTO 29009KT 9999 BKN018/// 14/11 Q1013 WHT
02:55
M
14 °C 10 km+ 2.000 ft 290° 290° 10 kt METAR EBFN 130055Z AUTO 29010KT 9999 BKN020/// 14/11 Q1014 WHT
02:33
M
14 °C 10 km+ 2.400 ft 290° 290° 9 kt SPECI EBFN 130033Z AUTO 29009KT 9999 BKN024/// 14/10 Q1014 WHT
02:25
V
14 °C 10 km+ - 280° 280° 9 kt METAR EBFN 130025Z AUTO 28009KT 9999 SCT025/// 14/10 Q1014 BLU
02:17
V
14 °C 10 km+ - 290° 290° 8 kt SPECI EBFN 130017Z AUTO 29008KT 9999 SCT024/// 14/10 Q1014 WHT
01:55
V
13 °C 10 km+ - 290° 290° 8 kt METAR EBFN 122355Z AUTO 29008KT 9999 FEW025/// 13/09 Q1014 BLU
01:25
V
14 °C 10 km+ - 300° 300° 10 kt METAR EBFN 122325Z AUTO 30010KT 9999 SCT026/// 14/09 Q1014 BLU
01:03
M
15 °C 10 km+ 2.400 ft 300° 300° 9 kt SPECI EBFN 122303Z AUTO 30009KT 9999 BKN024/// 15/10 Q1014 WHT
00:53
M
14 °C 10 km+ 2.500 ft 300° 300° 9 kt SPECI EBFN 122253Z AUTO 30009KT 9999 BKN025/// 14/10 Q1014 BLU
00:25
V
14 °C 10 km+ 17.000 ft 300° 300° 8 kt METAR EBFN 122225Z AUTO 30008KT 9999 SCT022/// BKN170/// 14/10 Q1014 WHT
00:13
V
14 °C 10 km+ 17.000 ft 300° 300° 8 kt SPECI EBFN 122213Z AUTO 30008KT 9999 SCT021/// BKN170/// 14/10 Q1014 WHT

2024年7月12日

时间 代码 天气 温度 能见度 天花板 METAR/SPECI
23:55
V
14 °C 10 km+ - 310° 310° 9 kt METAR EBFN 122155Z AUTO 31009KT 9999 FEW021/// SCT170/// 14/10 Q1014 BLU
23:53
V
14 °C 10 km+ - 310° 310° 8 kt SPECI EBFN 122153Z AUTO 31008KT 9999 FEW021/// SCT170/// 14/10 Q1015 BLU
23:25
M
14 °C 10 km+ 2.200 ft 310° 310° 10 kt METAR EBFN 122125Z AUTO 31010KT 9999 BKN022/// 14/10 Q1015 WHT
22:55
M
14 °C 10 km+ 2.100 ft 310° 310° 10 kt METAR EBFN 122055Z AUTO 31010KT 9999 OVC021/// 14/10 Q1015 WHT
22:33
M
14 °C 10 km+ 2.100 ft 320° 320° 11 kt SPECI EBFN 122033Z AUTO 32011KT 9999 BKN021/// 14/11 Q1015 WHT
22:18
V
14 °C 10 km+ 3.600 ft 330° 330° 8 kt SPECI EBFN 122018Z AUTO 33008KT 9999 FEW021/// BKN036/// 14/10 Q1015 BLU
21:55
V
14 °C 10 km+ - 310° 310° 9 kt METAR EBFN 121955Z AUTO 31009KT 9999 SCT021/// 14/10 Q1015 WHT
21:38
V
14 °C 10 km+ - 320° 320° 8 kt SPECI EBFN 121938Z AUTO 32008KT 9999 SCT021/// 14/10 Q1014 WHT
21:25
V
14 °C 10 km+ - 320° 320° 10 kt METAR EBFN 121925Z AUTO 32010KT 9999 FEW020/// 14/10 Q1014 BLU
21:08
V
15 °C 10 km+ - 320° 320° 10 kt SPECI EBFN 121908Z AUTO 32010KT 9999 FEW019/// SCT021/// 15/10 Q1015 WHT
20:55
V
15 °C 10 km+ 4.200 ft 330° 330° 10 kt METAR EBFN 121855Z AUTO 33010KT 9999 FEW019/// BKN042/// 15/10 Q1015 BLU
20:48
V
15 °C 10 km+ 4.200 ft 330° 330° 10 kt SPECI EBFN 121848Z AUTO 33010KT 9999 FEW020/// BKN042/// 15/11 Q1015 BLU
20:25
M
15 °C 10 km+ 1.900 ft 330° 330° 9 kt METAR EBFN 121825Z AUTO 33009KT 9999 BKN019/// 15/10 Q1015 WHT
19:55
M
15 °C 10 km+ 2.100 ft 330° 330° 9 kt METAR EBFN 121755Z AUTO 33009KT 9999 BKN021/// 15/11 Q1015 WHT
19:38
M
16 °C 10 km+ 2.300 ft 340° 340° 11 kt SPECI EBFN 121738Z AUTO 34011KT 9999 BKN023/// 16/10 Q1015 WHT
19:25
V
15 °C 10 km+ 3.500 ft 340° 340° 10 kt METAR EBFN 121725Z AUTO 34010KT 9999 FEW019/// BKN035/// 15/11 Q1015 BLU
18:55
M
15 °C 10 km+ 1.800 ft 340° 340° 11 kt METAR EBFN 121655Z AUTO 34011KT 9999 BKN018/// BKN045/// 15/11 Q1015 WHT
18:38
V
16 °C 10 km+ - 340° 340° 11 kt SPECI EBFN 121638Z AUTO 34011KT 9999 SCT018/// SCT120/// 16/11 Q1015 WHT
18:25
V
16 °C 10 km+ 12.000 ft 350° 350° 12 kt METAR EBFN 121625Z AUTO 35012KT 9999 FEW019/// BKN120/// 16/11 Q1015 BLU
18:23
V
16 °C 10 km+ 12.000 ft 350° 350° 13 kt SPECI EBFN 121623Z AUTO 35013KT 9999 FEW019/// BKN120/// 16/12 Q1015 BLU
17:55
M
16 °C 10 km+ 1.700 ft 340° 340° 12 kt METAR EBFN 121555Z AUTO 34012KT 9999 BKN017/// BKN100/// BKN110/// 16/11 Q1015 WHT
17:25
M
15 °C 10 km+ 2.000 ft 350° 350° 12 kt METAR EBFN 121525Z AUTO 35012KT 9999 BKN020/// BKN080/// 15/11 Q1015 WHT
17:23
V
15 °C 10 km+ 8.000 ft 350° 350° 11 kt SPECI EBFN 121523Z AUTO 35011KT 9999 SCT020/// BKN080/// 15/10 Q1015 WHT FCST CANCEL
16:55
V
16 °C 10 km+ 4.500 ft 350° 350° 11 kt METAR EBFN 121455Z 35011KT 9999 FEW025 BKN045 16/11 Q1015 BLU BLU
16:53
V
16 °C 10 km+ 4.500 ft 350° 350° 11 kt SPECI EBFN 121453Z 35011KT 9999 FEW025 BKN045 16/11 Q1015 BLU BLU
16:25
V
16 °C 10 km+ 4.500 ft 350° 350° 13 kt METAR EBFN 121425Z 35013KT 9999 SCT020 BKN045 16/11 Q1015 WHT WHT BECMG BLU
15:55
V
16 °C 10 km+ 4.500 ft 350° 350° 12 kt METAR EBFN 121355Z 35012KT 9999 SCT017 BKN045 16/11 Q1015 WHT WHT BECMG BLU
15:53
V
16 °C 10 km+ 4.500 ft 350° 350° 12 kt SPECI EBFN 121353Z 35012KT 9999 SCT017 BKN045 16/11 Q1015 WHT WHT BECMG BLU
15:45
V
16 °C 10 km+ 3.200 ft 350° 350° 13 kt SPECI EBFN 121345Z 35013KT 9999 SCT016 BKN032 BKN048 16/11 Q1015 WHT WHT TEMPO GRN
15:25
V
17 °C 10 km+ 3.200 ft 360° 360° 13 kt METAR EBFN 121325Z 36013KT 9999 SCT016 BKN032 BKN048 17/13 Q1015 WHT WHT TEMPO GRN
14:55
V
15 °C 10 km+ 3.200 ft 350° 350° 14 kt METAR EBFN 121255Z 35014KT 9999 SCT016 BKN032 BKN048 15/12 Q1015 WHT WHT TEMPO GRN
14:25
M
15 °C 6 km 2.500 ft 360° 360° 13 kt METAR EBFN 121225Z 36013KT 6000 -RA SCT016 BKN025 BKN050 15/12 Q1015 WHT WHT TEMPO GRN
13:55
M
15 °C 10 km+ 2.000 ft 360° 360° 14 kt METAR EBFN 121155Z 36014KT 9999 SCT015 BKN020 BKN040 15/12 Q1014 WHT WHT TEMPO GRN
13:36
M
16 °C 10 km+ 2.000 ft 360° 360° 15 kt SPECI EBFN 121136Z 36015KT 9999 SCT015 BKN020 BKN040 16/12 Q1014 WHT WHT TEMPO GRN
13:25
M
16 °C 10 km+ 2.000 ft 360° 360° 16 kt METAR EBFN 121125Z 36016KT 9999 SCT015 BKN020 BKN040 16/13 Q1014 WHT WHT TEMPO GRN
12:55
M
15 °C 10 km+ 1.700 ft 360° 360° 15 kt METAR EBFN 121055Z 36015KT 9999 SCT013 BKN017 BKN040 15/12 Q1014 GRN WHT TEMPO GRN
12:52
M
15 °C 10 km+ 1.700 ft 360° 360° 14 kt SPECI EBFN 121052Z 36014KT 9999 SCT014 BKN017 BKN040 15/13 Q1014 GRN WHT TEMPO GRN
12:25
V
15 °C 10 km+ 4.000 ft 010° 010° 14 kt SPECI EBFN 121025Z 01014KT 9999 FEW012 SCT015 BKN040 15/13 Q1014 WHT WHT TEMPO GRN
11:55
V
15 °C 10 km+ 3.200 ft 010° 010° 14 kt METAR EBFN 120955Z 01014KT 9999 FEW010 SCT013 BKN032 15/14 Q1014 GRN WHT TEMPO GRN
11:52
V
15 °C 10 km+ 3.200 ft 010° 010° 14 kt SPECI EBFN 120952Z 01014KT 9999 FEW010 SCT013 BKN032 15/13 Q1014 GRN WHT TEMPO GRN
11:25
V
15 °C 8 km 3.200 ft 010° 010° 14 kt METAR EBFN 120925Z 01014KT 8000 FEW011 SCT013 BKN032 15/14 Q1014 GRN GRN TEMPO YLO
10:55
M
15 °C 6 km 3.200 ft 010° 010° 13 kt METAR EBFN 120855Z 01013KT 6000 -RA FEW010 SCT013 BKN032 15/14 Q1013 GRN GRN TEMPO YLO
10:25
M
15 °C 5 km 2.200 ft 010° 010° 13 kt METAR EBFN 120825Z 01013KT 5000 RA FEW008 SCT012 BKN022 15/14 Q1013 GRN GRN TEMPO YLO
10:05
M
15 °C 6 km 2.000 ft 010° 010° 12 kt SPECI EBFN 120805Z 01012KT 6000 RA SCT011 BKN020 BKN025 15/14 Q1013 GRN GRN TEMPO YLO
09:55
M
15 °C 6 km 2.000 ft 010° 010° 11 kt METAR EBFN 120755Z 01011KT 6000 RA SCT011 BKN020 BKN025 15/14 Q1013 GRN WHT TEMPO GRN
09:25
M
15 °C 6 km 1.800 ft 010° 010° 11 kt METAR EBFN 120725Z 01011KT 6000 RA SCT012 BKN018 BKN025 15/14 Q1013 GRN WHT TEMPO GRN
08:55
M
15 °C 7 km 1.800 ft 010° 010° 11 kt METAR EBFN 120655Z 01011KT 7000 RA SCT012 BKN018 BKN025 15/14 Q1014 GRN WHT TEMPO GRN
08:52
M
15 °C 7 km 3.000 ft 010° 010° 10 kt SPECI EBFN 120652Z 01010KT 7000 RA SCT023 BKN030 BKN035 15/14 Q1014 WHT WHT TEMPO GRN
08:50
M
15 °C 7 km 8.300 ft 010° 010° 9 kt SPECI EBFN 120650Z AUTO 01009KT 7000 +RA FEW027/// OVC083/// 15/14 Q1014 WHT
08:25
V
15 °C 10 km+ 7.100 ft 020° 020° 10 kt METAR EBFN 120625Z AUTO 02010KT 9999 RA FEW014/// OVC071/// 15/14 Q1013 BLU
07:55
M
15 °C 10 km+ 1.400 ft 020° 020° 10 kt METAR EBFN 120555Z AUTO 02010KT 9999 -RA BKN014/// OVC093/// 15/14 Q1014 GRN
报告变更